Time;durP1;ratioP1;P1;durP2;ratioP2;P2;SDS_P1;SDS_P2;PMS_P1;PMS_P2;Temp;Humidity;BMP_temperature;BMP_pressure;BME280_temperature;BME280_humidity;BME280_pressure;Samples;Min_cycle;Max_cycle;Signal;HPM_P1;HPM_P2
2021/04/13 00:01:12;;;;;;;6.07;5.50;;;;;;;3.48;62.44;97693.88;5013716;28;20450;-69
2021/04/13 00:03:41;;;;;;;8.10;6.17;;;;;;;3.44;62.72;97699.34;5013533;28;20542;-68
2021/04/13 00:06:08;;;;;;;8.13;5.50;;;;;;;3.49;62.26;97690.38;5013729;28;20438;-69
2021/04/13 00:08:33;;;;;;;6.70;5.97;;;;;;;3.62;62.75;97697.38;5014007;28;20442;-68
2021/04/13 00:11:03;;;;;;;7.40;5.57;;;;;;;3.61;62.42;97687.94;5021613;28;20418;-69
2021/04/13 00:13:29;;;;;;;6.17;5.23;;;;;;;3.62;62.68;97692.19;5021029;28;20811;-69
2021/04/13 00:15:56;;;;;;;5.93;5.37;;;;;;;3.67;62.70;97690.97;5013598;28;20984;-68
2021/04/13 00:18:29;;;;;;;6.93;5.20;;;;;;;3.45;63.05;97683.69;5028600;28;20412;-70
2021/04/13 00:21:29;;;;;;;5.73;5.23;;;;;;;3.66;62.69;97683.25;5013254;28;20428;-69
2021/04/13 00:23:57;;;;;;;8.53;5.70;;;;;;;3.60;62.98;97689.66;4998887;28;20426;-68
2021/04/13 00:26:26;;;;;;;6.20;5.60;;;;;;;3.59;62.83;97687.19;5012012;28;20791;-69
2021/04/13 00:28:53;;;;;;;8.47;6.07;;;;;;;3.57;62.94;97687.28;5012799;28;20435;-69
2021/04/13 00:31:41;;;;;;;8.33;5.90;;;;;;;3.62;62.38;97681.81;5012999;28;20657;-68
2021/04/13 00:35:07;;;;;;;6.90;5.80;;;;;;;3.76;61.74;97686.97;5013723;28;20447;-69
2021/04/13 00:37:33;;;;;;;7.33;6.00;;;;;;;3.76;62.04;97684.38;5012127;28;20502;-68
2021/04/13 00:40:28;;;;;;;7.03;5.80;;;;;;;3.93;61.95;97685.88;5011431;28;20515;-68
2021/04/13 00:43:00;;;;;;;7.30;5.97;;;;;;;4.06;61.71;97680.72;5016877;28;20205;-70
2021/04/13 00:45:31;;;;;;;7.70;5.57;;;;;;;3.94;61.54;97686.69;5013053;28;20470;-68
2021/04/13 00:47:57;;;;;;;6.83;6.07;;;;;;;4.08;61.73;97693.59;5012594;28;20419;-66
2021/04/13 00:50:28;;;;;;;8.07;6.30;;;;;;;4.18;61.03;97693.81;5029150;28;20422;-68
2021/04/13 00:52:55;;;;;;;10.50;6.30;;;;;;;3.81;61.76;97684.88;5021189;28;20529;-68
2021/04/13 00:55:29;;;;;;;9.67;6.80;;;;;;;3.76;62.51;97688.72;5021494;28;20443;-67
2021/04/13 00:58:09;;;;;;;9.20;6.13;;;;;;;3.63;62.43;97696.44;4990901;28;20490;-70
2021/04/13 01:00:41;;;;;;;7.40;6.13;;;;;;;3.89;62.35;97694.78;4996182;28;20442;-69
2021/04/13 01:03:13;;;;;;;9.20;6.57;;;;;;;3.88;62.09;97693.13;5005193;28;20454;-68
2021/04/13 01:05:42;;;;;;;9.20;6.80;;;;;;;4.22;61.39;97688.31;5023655;28;20435;-68
2021/04/13 01:08:29;;;;;;;9.73;6.83;;;;;;;4.30;61.11;97698.19;5014010;28;20494;-68
2021/04/13 01:10:58;;;;;;;9.33;6.13;;;;;;;4.04;61.62;97698.13;5012424;28;20829;-68
2021/04/13 01:13:51;;;;;;;8.60;6.83;;;;;;;4.13;61.32;97699.31;5012966;28;20414;-68
2021/04/13 01:16:21;;;;;;;7.83;6.60;;;;;;;4.03;61.79;97699.09;5012196;28;20921;-68
2021/04/13 01:18:51;;;;;;;7.43;5.90;;;;;;;4.08;61.24;97697.03;5011562;28;20423;-69
2021/04/13 01:21:36;;;;;;;9.30;6.13;;;;;;;4.05;60.97;97686.84;5020819;28;20574;-68
2021/04/13 01:24:12;;;;;;;6.30;5.53;;;;;;;4.05;61.36;97692.03;5020495;28;20419;-68
2021/04/13 01:26:44;;;;;;;7.37;6.13;;;;;;;4.03;61.24;97688.72;5011684;28;20758;-68
2021/04/13 01:29:10;;;;;;;8.47;7.17;;;;;;;3.71;62.09;97691.59;5017276;28;20419;-68
2021/04/13 01:31:45;;;;;;;7.90;6.47;;;;;;;3.69;62.17;97688.25;5010500;28;21008;-68
2021/04/13 01:34:26;;;;;;;7.30;5.90;;;;;;;3.75;62.10;97690.47;5010910;28;20969;-68
2021/04/13 01:37:16;;;;;;;9.90;6.60;;;;;;;3.59;62.16;97689.78;5011714;28;20515;-68
2021/04/13 01:39:51;;;;;;;8.97;6.63;;;;;;;3.46;62.38;97695.72;5018190;28;20512;-68
2021/04/13 01:42:17;;;;;;;7.20;6.10;;;;;;;3.61;61.93;97696.53;5018684;28;20451;-68
2021/04/13 01:44:47;;;;;;;8.50;6.70;;;;;;;3.57;61.82;97691.63;5011240;28;20439;-68
2021/04/13 01:47:16;;;;;;;11.13;6.43;;;;;;;3.57;62.12;97694.22;5011817;28;20435;-67
2021/04/13 01:50:05;;;;;;;7.10;6.40;;;;;;;3.36;62.73;97692.06;5017385;28;20883;-68
2021/04/13 01:52:32;;;;;;;11.10;6.60;;;;;;;3.36;63.13;97692.06;5018608;28;20419;-68
2021/04/13 01:54:59;;;;;;;8.07;7.00;;;;;;;3.47;62.69;97692.22;5011684;28;20450;-69
2021/04/13 01:57:50;;;;;;;8.20;7.20;;;;;;;3.53;62.34;97693.59;5008529;28;20754;-67
2021/04/13 02:00:29;;;;;;;93.40;26.70;;;;;;;3.53;62.50;97698.78;5010827;28;20450;-67
2021/04/13 02:03:06;;;;;;;148.30;27.43;;;;;;;3.38;62.83;97690.19;5012966;28;20977;-67
2021/04/13 02:05:34;;;;;;;147.77;29.00;;;;;;;3.32;62.93;97695.75;5004563;28;20488;-68
2021/04/13 02:08:15;;;;;;;103.07;24.27;;;;;;;3.20;63.37;97711.13;5010789;28;20451;-67
2021/04/13 02:10:46;;;;;;;128.37;26.10;;;;;;;3.26;63.08;97701.31;5030187;28;20897;-69
2021/04/13 02:13:18;;;;;;;117.43;23.53;;;;;;;3.46;62.47;97700.91;5012367;28;20435;-67
2021/04/13 02:16:05;;;;;;;151.77;31.13;;;;;;;3.43;62.52;97698.50;4999171;28;20444;-68
2021/04/13 02:18:43;;;;;;;139.87;27.23;;;;;;;3.33;63.29;97712.97;5004084;28;20910;-67
2021/04/13 02:21:14;;;;;;;16.63;8.90;;;;;;;3.23;63.36;97713.53;5009880;28;20430;-67
2021/04/13 02:23:50;;;;;;;14.40;8.60;;;;;;;3.35;63.05;97700.75;5011445;28;20521;-68
2021/04/13 02:26:16;;;;;;;12.93;8.63;;;;;;;3.43;62.54;97701.09;5011182;28;20430;-68
2021/04/13 02:28:43;;;;;;;9.70;6.83;;;;;;;3.70;61.96;97700.31;5009804;28;20624;-68
2021/04/13 02:31:11;;;;;;;10.07;7.90;;;;;;;3.75;61.26;97702.59;5011455;28;20983;-67
2021/04/13 02:33:39;;;;;;;9.23;7.40;;;;;;;3.40;62.46;97703.06;5010563;28;20469;-67
2021/04/13 02:36:15;;;;;;;11.13;8.17;;;;;;;3.18;62.93;97714.75;5024965;28;20445;-67
2021/04/13 02:38:46;;;;;;;10.00;7.57;;;;;;;3.31;62.75;97713.06;5009653;28;20777;-67
2021/04/13 02:41:44;;;;;;;75.30;23.37;;;;;;;3.44;62.08;97710.53;5011142;28;20956;-67
2021/04/13 02:44:11;;;;;;;63.80;15.93;;;;;;;3.30;62.14;97718.31;5009076;28;20974;-67
2021/04/13 02:46:37;;;;;;;91.83;20.73;;;;;;;3.25;62.53;97715.19;5009757;28;20431;-67
2021/04/13 02:49:05;;;;;;;53.93;15.17;;;;;;;3.09;63.41;97723.91;5009833;28;20510;-67
2021/04/13 02:51:37;;;;;;;28.00;11.43;;;;;;;2.78;63.94;97717.94;5010024;28;20435;-67
2021/04/13 02:54:06;;;;;;;42.70;12.20;;;;;;;2.69;64.59;97723.69;5025642;28;20436;-67
2021/04/13 02:56:43;;;;;;;20.90;9.43;;;;;;;2.41;65.71;97720.09;5021678;28;20427;-67
2021/04/13 02:59:18;;;;;;;12.53;7.77;;;;;;;2.35;65.70;97717.88;5015544;28;20813;-66
2021/04/13 03:01:57;;;;;;;10.90;7.63;;;;;;;2.35;66.16;97720.47;5010921;28;20511;-68
2021/04/13 03:04:23;;;;;;;10.93;7.30;;;;;;;2.41;66.47;97726.13;5002319;28;20427;-67
2021/04/13 03:06:51;;;;;;;10.90;8.07;;;;;;;2.11;67.33;97724.34;5001949;28;20953;-67
2021/04/13 03:09:20;;;;;;;13.03;8.13;;;;;;;2.23;66.98;97727.16;5011817;28;20470;-68
2021/04/13 03:11:48;;;;;;;10.10;8.43;;;;;;;2.24;67.55;97716.75;5013683;28;20507;-67
2021/04/13 03:14:15;;;;;;;12.50;8.53;;;;;;;2.38;67.34;97721.13;5004635;28;20463;-66
2021/04/13 03:16:45;;;;;;;12.70;8.87;;;;;;;2.37;67.05;97721.22;5011276;28;20443;-67
2021/04/13 03:19:13;;;;;;;10.53;8.03;;;;;;;2.45;66.58;97722.44;5031552;28;20415;-67
2021/04/13 03:21:42;;;;;;;12.80;8.53;;;;;;;2.76;65.49;97719.81;5018926;28;21008;-67
2021/04/13 03:24:10;;;;;;;15.80;8.90;;;;;;;2.55;66.06;97722.72;5015126;28;21238;-67
2021/04/13 03:26:44;;;;;;;11.30;8.10;;;;;;;2.36;67.21;97724.72;5013956;28;20530;-67
2021/04/13 03:29:29;;;;;;;11.70;9.10;;;;;;;2.63;66.45;97719.69;5013314;28;20428;-67
2021/04/13 03:31:55;;;;;;;13.30;9.63;;;;;;;2.77;65.92;97721.50;5012617;28;20418;-67
2021/04/13 03:34:21;;;;;;;11.70;8.87;;;;;;;2.63;65.94;97718.88;5005260;28;20444;-67
2021/04/13 03:36:47;;;;;;;10.13;7.90;;;;;;;2.47;65.55;97714.59;5011909;28;20914;-66
2021/04/13 03:39:19;;;;;;;10.27;8.27;;;;;;;2.91;64.64;97712.88;4996364;28;20427;-68
2021/04/13 03:41:47;;;;;;;7.23;6.50;;;;;;;3.36;63.42;97710.19;5015327;28;20423;-67
2021/04/13 03:44:16;;;;;;;9.13;7.60;;;;;;;3.52;62.26;97703.13;5013954;28;20446;-67
2021/04/13 03:46:41;;;;;;;8.73;7.30;;;;;;;3.65;62.28;97707.56;5014982;28;20889;-67
2021/04/13 03:49:14;;;;;;;12.90;8.17;;;;;;;3.07;62.72;97716.22;5026030;28;20431;-67
2021/04/13 03:51:46;;;;;;;9.63;8.00;;;;;;;3.18;62.80;97722.53;5029502;28;20234;-67
2021/04/13 03:54:26;;;;;;;10.37;8.27;;;;;;;3.33;62.19;97718.16;5012877;28;20443;-67
2021/04/13 03:56:52;;;;;;;9.57;7.93;;;;;;;3.14;62.89;97724.47;5000292;28;20443;-67
2021/04/13 03:59:21;;;;;;;9.43;8.03;;;;;;;3.33;61.94;97724.19;5013177;28;20495;-68
2021/04/13 04:01:47;;;;;;;11.77;8.00;;;;;;;3.44;61.67;97720.91;5013344;28;20488;-68
2021/04/13 04:04:48;;;;;;;10.50;8.20;;;;;;;3.16;62.17;97726.94;5013170;28;20447;-67
2021/04/13 04:07:28;;;;;;;12.00;8.30;;;;;;;2.94;62.98;97732.59;4952030;28;20434;-68
2021/04/13 04:09:54;;;;;;;13.10;8.90;;;;;;;2.52;64.34;97730.66;4952267;28;20438;-68
2021/04/13 04:12:26;;;;;;;10.07;8.50;;;;;;;2.13;65.92;97737.22;4950520;28;20433;-66
2021/04/13 04:15:02;;;;;;;13.60;8.73;;;;;;;1.89;66.80;97742.81;4936074;28;20209;-66
2021/04/13 04:17:31;;;;;;;10.97;8.33;;;;;;;2.07;66.47;97748.75;4956849;28;20869;-67
2021/04/13 04:20:06;;;;;;;11.50;9.10;;;;;;;1.93;66.23;97746.09;4955423;28;20527;-65
2021/04/13 04:22:34;;;;;;;8.87;7.90;;;;;;;1.97;66.35;97745.81;4936502;29;20458;-66
2021/04/13 04:25:15;;;;;;;12.47;9.60;;;;;;;1.86;67.41;97745.59;4950018;28;21011;-67
2021/04/13 04:27:41;;;;;;;11.77;8.67;;;;;;;1.87;67.00;97747.25;4933578;29;20438;-67
2021/04/13 04:30:22;;;;;;;12.47;8.70;;;;;;;1.98;67.47;97749.22;4934269;28;20422;-67
2021/04/13 04:32:48;;;;;;;11.20;9.00;;;;;;;1.85;67.23;97746.50;4952447;28;20553;-66
2021/04/13 04:35:29;;;;;;;16.60;10.60;;;;;;;1.68;67.84;97743.06;4935253;28;20462;-67
2021/04/13 04:38:25;;;;;;;14.53;9.13;;;;;;;1.80;67.85;97749.34;4958620;28;20517;-66
2021/04/13 04:40:55;;;;;;;12.13;10.00;;;;;;;1.71;68.63;97751.59;4971748;28;20517;-66
2021/04/13 04:43:43;;;;;;;18.53;10.80;;;;;;;1.61;68.03;97752.09;5017433;28;20466;-66
2021/04/13 04:46:09;;;;;;;14.20;10.20;;;;;;;1.67;68.21;97751.75;5015740;28;20527;-67
2021/04/13 04:48:39;;;;;;;14.90;9.50;;;;;;;1.71;68.02;97754.16;5018022;28;20572;-67
2021/04/13 04:51:13;;;;;;;12.70;9.00;;;;;;;1.71;67.87;97751.59;5014339;28;20180;-67
2021/04/13 04:53:41;;;;;;;16.13;11.30;;;;;;;1.71;67.54;97761.94;5012148;28;20510;-67
2021/04/13 04:56:10;;;;;;;13.07;10.47;;;;;;;1.67;67.50;97756.91;5016157;28;20439;-67
2021/04/13 04:58:36;;;;;;;16.50;9.70;;;;;;;1.78;67.79;97765.84;5012318;28;20427;-68
2021/04/13 05:01:02;;;;;;;15.20;9.60;;;;;;;1.78;67.44;97760.66;5012275;28;20464;-67
2021/04/13 05:03:28;;;;;;;13.70;10.53;;;;;;;1.83;67.27;97771.59;5011972;28;20466;-67
2021/04/13 05:05:55;;;;;;;12.70;10.13;;;;;;;1.71;67.76;97767.09;5012122;28;20443;-67
2021/04/13 05:08:22;;;;;;;16.83;10.30;;;;;;;1.85;67.63;97780.09;5004979;28;20203;-66
2021/04/13 05:10:49;;;;;;;15.20;10.60;;;;;;;1.74;67.31;97778.09;5027512;28;20419;-66
2021/04/13 05:13:15;;;;;;;21.40;10.70;;;;;;;2.01;66.41;97782.69;5012284;28;20515;-67
2021/04/13 05:15:40;;;;;;;14.97;10.60;;;;;;;2.51;65.33;97778.19;5014672;28;20872;-66
2021/04/13 05:18:07;;;;;;;15.47;10.60;;;;;;;2.56;64.46;97770.97;5022335;28;20651;-66
2021/04/13 05:20:32;;;;;;;15.60;10.10;;;;;;;2.65;64.13;97785.16;5024216;28;20184;-66
2021/04/13 05:22:58;;;;;;;34.67;15.73;;;;;;;2.41;64.82;97789.97;5030681;28;20510;-68
2021/04/13 05:25:24;;;;;;;56.00;18.70;;;;;;;2.51;64.70;97793.72;5030512;28;20200;-66
2021/04/13 05:27:50;;;;;;;86.93;22.37;;;;;;;2.82;64.09;97799.72;5013037;28;20231;-68
2021/04/13 05:30:17;;;;;;;41.03;13.57;;;;;;;2.67;63.76;97795.41;5011782;28;20177;-64
2021/04/13 05:32:43;;;;;;;13.93;9.77;;;;;;;2.80;63.35;97798.13;5011793;28;20451;-67
2021/04/13 05:35:09;;;;;;;12.17;9.27;;;;;;;2.71;63.84;97800.31;5011319;28;20482;-66
2021/04/13 05:37:35;;;;;;;34.67;14.30;;;;;;;2.62;64.78;97811.19;5026778;28;20671;-66
2021/04/13 05:40:03;;;;;;;54.50;18.07;;;;;;;2.53;65.41;97811.72;5012274;28;20498;-66
2021/04/13 05:42:31;;;;;;;50.27;16.90;;;;;;;2.28;65.18;97819.09;5029905;28;20196;-68
2021/04/13 05:44:58;;;;;;;79.87;21.50;;;;;;;2.58;64.84;97807.97;5014376;28;20810;-68
2021/04/13 05:47:24;;;;;;;17.30;10.73;;;;;;;2.69;64.63;97812.53;5026960;28;20419;-67
2021/04/13 05:49:50;;;;;;;15.47;11.00;;;;;;;3.26;62.85;97815.31;5010668;28;20783;-67
2021/04/13 05:52:16;;;;;;;14.70;10.83;;;;;;;2.85;62.89;97817.66;5011694;28;20415;-66
2021/04/13 05:54:41;;;;;;;17.53;11.70;;;;;;;3.15;61.95;97818.53;5011458;28;20200;-68
2021/04/13 05:57:09;;;;;;;18.80;11.30;;;;;;;3.28;62.37;97818.63;5007634;28;20713;-67
2021/04/13 05:59:35;;;;;;;15.20;10.33;;;;;;;3.43;61.04;97809.94;5012770;28;20195;-68
2021/04/13 06:02:02;;;;;;;19.33;10.30;;;;;;;3.44;61.34;97814.22;5010415;28;20459;-67
2021/04/13 06:04:28;;;;;;;13.73;10.73;;;;;;;3.11;62.12;97823.06;5011629;28;20259;-68
2021/04/13 06:06:54;;;;;;;15.00;10.60;;;;;;;3.44;61.11;97823.75;5020073;28;20994;-67
2021/04/13 06:09:20;;;;;;;14.03;10.60;;;;;;;4.38;59.64;97820.53;5012328;28;20184;-67
2021/04/13 06:11:46;;;;;;;14.63;10.57;;;;;;;4.35;57.36;97825.91;5029893;28;20184;-67
2021/04/13 06:14:12;;;;;;;15.70;11.03;;;;;;;4.23;58.61;97818.91;5012128;28;20428;-69
2021/04/13 06:16:39;;;;;;;14.33;10.83;;;;;;;4.63;58.00;97828.50;5017628;28;20834;-68
2021/04/13 06:19:06;;;;;;;13.93;10.57;;;;;;;4.62;57.46;97825.06;5013327;28;20420;-67
2021/04/13 06:21:32;;;;;;;15.83;10.47;;;;;;;4.58;57.93;97827.03;5011910;28;20996;-67
2021/04/13 06:23:57;;;;;;;14.93;10.70;;;;;;;4.52;57.49;97835.22;5011703;28;20458;-66
2021/04/13 06:26:23;;;;;;;13.83;10.70;;;;;;;4.29;57.90;97831.47;5020590;28;20419;-67
2021/04/13 06:28:49;;;;;;;12.73;10.37;;;;;;;4.75;56.87;97828.53;5027276;28;20184;-67
2021/04/13 06:31:15;;;;;;;14.27;10.03;;;;;;;4.81;56.28;97829.91;5011504;28;20435;-67
2021/04/13 06:33:41;;;;;;;13.63;10.80;;;;;;;4.69;56.67;97825.50;5012441;28;20180;-68
2021/04/13 06:36:07;;;;;;;13.77;11.13;;;;;;;5.14;55.98;97830.38;5011939;28;20459;-68
2021/04/13 06:38:36;;;;;;;15.07;11.57;;;;;;;5.26;54.49;97832.16;5026050;28;20540;-68
2021/04/13 06:41:26;;;;;;;26.83;12.13;;;;;;;4.86;55.93;97830.41;5011105;28;20423;-67
2021/04/13 06:44:07;;;;;;;18.53;12.73;;;;;;;4.88;55.14;97838.94;5010080;28;20533;-68
2021/04/13 06:46:58;;;;;;;12.10;10.33;;;;;;;5.19;54.66;97836.06;5015150;28;20419;-68
2021/04/13 06:49:57;;;;;;;15.20;11.77;;;;;;;5.68;54.13;97843.13;5015533;28;20418;-69
2021/04/13 06:52:43;;;;;;;16.43;10.80;;;;;;;6.14;51.97;97848.72;5007498;28;20447;-68
2021/04/13 06:55:16;;;;;;;17.83;9.97;;;;;;;6.70;50.79;97834.31;5012406;28;20450;-68
2021/04/13 06:58:01;;;;;;;13.47;10.07;;;;;;;6.64;51.04;97835.59;5010727;28;20889;-68
2021/04/13 07:00:49;;;;;;;14.00;11.40;;;;;;;6.00;52.54;97831.44;5014175;28;20945;-69
2021/04/13 07:03:31;;;;;;;14.67;11.50;;;;;;;5.94;52.64;97837.06;5015441;28;21730;-69
2021/04/13 07:06:23;;;;;;;12.00;10.30;;;;;;;5.58;53.48;97839.50;5015968;28;20988;-69
2021/04/13 07:08:55;;;;;;;13.57;10.70;;;;;;;5.75;52.68;97843.53;4982275;28;20427;-69
2021/04/13 07:11:30;;;;;;;12.10;10.80;;;;;;;5.82;52.94;97839.59;5016423;28;20773;-69
2021/04/13 07:14:28;;;;;;;12.40;11.10;;;;;;;5.67;53.78;97841.47;5014762;28;20415;-69
2021/04/13 07:17:01;;;;;;;20.80;11.03;;;;;;;5.65;53.38;97845.97;4997212;28;20939;-69
2021/04/13 07:19:34;;;;;;;14.83;11.00;;;;;;;6.45;50.62;97852.56;5023410;28;20983;-69
2021/04/13 07:22:08;;;;;;;13.87;11.73;;;;;;;6.18;51.30;97844.13;5030272;28;20537;-69
2021/04/13 07:24:43;;;;;;;13.53;11.43;;;;;;;6.37;50.63;97846.25;4998432;28;20542;-69
2021/04/13 07:27:15;;;;;;;15.23;12.17;;;;;;;7.17;49.23;97847.38;5016177;28;20908;-71
2021/04/13 07:29:53;;;;;;;15.83;12.60;;;;;;;7.32;48.90;97843.63;5014064;28;20481;-68
2021/04/13 07:32:22;;;;;;;15.60;11.17;;;;;;;7.15;48.01;97850.09;5008981;28;20704;-71
2021/04/13 07:34:53;;;;;;;13.03;10.93;;;;;;;5.83;52.14;97853.41;5018238;28;20453;-73
2021/04/13 07:37:43;;;;;;;16.80;11.80;;;;;;;5.63;52.14;97849.59;5017699;28;20454;-71
2021/04/13 07:40:17;;;;;;;16.37;11.47;;;;;;;5.63;52.77;97855.66;5016450;28;20431;-74
2021/04/13 07:42:50;;;;;;;14.10;11.97;;;;;;;5.29;52.89;97854.50;5021260;28;20505;-72
2021/04/13 07:45:31;;;;;;;17.17;13.07;;;;;;;6.25;52.49;97854.00;5030646;28;20449;-73
2021/04/13 07:48:02;;;;;;;18.73;12.87;;;;;;;6.57;50.87;97855.22;5013940;28;20972;-72
2021/04/13 07:50:51;;;;;;;13.00;10.60;;;;;;;5.50;52.67;97860.84;5014563;28;20427;-72
2021/04/13 07:53:30;;;;;;;15.73;12.70;;;;;;;5.98;51.63;97857.56;5022496;28;20465;-70
2021/04/13 07:56:20;;;;;;;13.80;10.17;;;;;;;6.51;51.17;97850.44;5007835;28;20993;-70
2021/04/13 07:58:58;;;;;;;14.37;11.50;;;;;;;5.30;53.88;97853.56;4992841;28;20420;-72
2021/04/13 08:01:24;;;;;;;20.97;12.03;;;;;;;5.37;54.69;97860.84;5010718;28;20438;-71
2021/04/13 08:03:51;;;;;;;15.80;12.93;;;;;;;5.27;56.11;97864.16;5017357;28;20463;-72
2021/04/13 08:06:28;;;;;;;14.60;11.20;;;;;;;5.02;56.92;97863.19;5014763;28;20443;-70
2021/04/13 08:09:36;;;;;;;17.80;13.07;;;;;;;4.91;58.53;97863.91;5012893;28;20435;-72
2021/04/13 08:12:11;;;;;;;51.57;20.10;;;;;;;4.99;59.26;97871.16;4912272;29;20432;-71
2021/04/13 08:14:44;;;;;;;21.60;15.13;;;;;;;4.88;60.42;97877.09;4922948;29;20467;-71
2021/04/13 08:17:19;;;;;;;25.13;16.33;;;;;;;4.96;61.59;97877.41;4883812;29;20600;-71
2021/04/13 08:19:59;;;;;;;24.70;16.00;;;;;;;4.62;61.52;97879.59;4896157;29;20437;-72
2021/04/13 08:22:25;;;;;;;67.10;23.33;;;;;;;4.76;61.44;97876.97;4907929;29;20467;-71
2021/04/13 08:24:53;;;;;;;29.63;17.50;;;;;;;5.61;60.29;97878.31;4883578;29;20510;-72
2021/04/13 08:27:46;;;;;;;24.83;15.53;;;;;;;5.37;58.91;97883.38;4914961;29;20427;-71
2021/04/13 08:30:29;;;;;;;14.80;11.20;;;;;;;5.60;57.47;97887.06;4915275;29;20978;-71
2021/04/13 08:33:02;;;;;;;14.10;10.60;;;;;;;5.05;59.89;97892.38;4898816;29;20428;-71
2021/04/13 08:35:51;;;;;;;12.13;8.00;;;;;;;5.34;56.43;97884.44;4907007;29;20460;-71
2021/04/13 08:38:32;;;;;;;7.30;6.60;;;;;;;5.82;54.86;97886.41;4898414;29;20441;-72
2021/04/13 08:41:03;;;;;;;11.00;7.00;;;;;;;5.92;53.98;97880.56;4913617;29;20438;-71
2021/04/13 08:43:49;;;;;;;10.10;8.60;;;;;;;5.29;55.34;97883.94;5000569;28;20474;-71
2021/04/13 08:46:46;;;;;;;15.10;9.70;;;;;;;5.57;55.89;97876.84;5013183;28;20515;-70
2021/04/13 08:49:22;;;;;;;13.30;10.10;;;;;;;5.77;55.24;97879.88;5016368;28;20427;-69
2021/04/13 08:51:50;;;;;;;15.20;11.50;;;;;;;5.88;55.74;97877.34;5011886;28;20833;-70
2021/04/13 08:54:19;;;;;;;15.70;12.90;;;;;;;6.17;56.43;97877.13;5011352;28;20554;-70
2021/04/13 08:57:21;;;;;;;21.20;14.93;;;;;;;5.74;56.62;97880.06;5009996;28;20421;-71
2021/04/13 08:59:52;;;;;;;23.10;13.70;;;;;;;5.55;57.32;97881.31;5007527;28;20498;-70
2021/04/13 09:02:33;;;;;;;16.57;13.90;;;;;;;5.95;55.34;97883.78;5012730;28;20939;-71
2021/04/13 09:05:09;;;;;;;15.93;13.10;;;;;;;6.60;53.72;97884.47;5011666;28;20446;-70
2021/04/13 09:07:47;;;;;;;18.87;14.97;;;;;;;7.31;51.77;97875.03;5009654;28;20419;-71
2021/04/13 09:10:30;;;;;;;15.40;12.03;;;;;;;7.01;52.19;97876.38;5013124;28;20510;-70
2021/04/13 09:13:22;;;;;;;15.30;12.57;;;;;;;7.76;48.69;97875.09;5011955;28;20477;-70
2021/04/13 09:16:06;;;;;;;15.33;12.37;;;;;;;8.10;47.44;97877.69;5027529;28;20971;-71
2021/04/13 09:18:44;;;;;;;16.57;11.67;;;;;;;8.19;45.79;97870.09;5007002;28;20423;-69
2021/04/13 09:21:23;;;;;;;13.60;11.50;;;;;;;8.86;45.38;97869.09;5027555;28;20505;-70
2021/04/13 09:23:48;;;;;;;15.60;11.70;;;;;;;7.57;46.52;97867.00;5010611;28;20459;-70
2021/04/13 09:26:45;;;;;;;11.97;10.00;;;;;;;7.13;47.10;97867.63;5012517;28;20501;-72
2021/04/13 09:29:28;;;;;;;22.00;11.17;;;;;;;6.22;49.29;97876.81;5100635;27;20525;-72
2021/04/13 09:31:54;;;;;;;12.73;11.33;;;;;;;7.14;47.42;97871.06;5098078;28;20978;-70
2021/04/13 09:34:50;;;;;;;13.17;10.70;;;;;;;6.88;47.08;97879.03;5107906;28;20435;-70
2021/04/13 09:37:40;;;;;;;20.80;11.13;;;;;;;7.88;45.61;97868.06;5108335;28;20250;-70
2021/04/13 09:40:26;;;;;;;15.60;9.70;;;;;;;8.41;44.12;97870.03;5109334;28;20423;-69
2021/04/13 09:42:51;;;;;;;10.87;9.20;;;;;;;7.81;42.93;97865.09;5083801;28;20795;-70
2021/04/13 09:45:44;;;;;;;9.67;8.10;;;;;;;7.57;42.63;97856.56;5108154;28;20554;-69
2021/04/13 09:48:33;;;;;;;9.30;8.37;;;;;;;7.19;42.81;97854.13;5108007;28;20227;-71
2021/04/13 09:51:16;;;;;;;17.43;9.27;;;;;;;7.45;42.71;97858.34;5082181;28;20436;-72
2021/04/13 09:53:55;;;;;;;12.80;9.70;;;;;;;6.89;43.18;97859.84;5089426;28;20431;-71
2021/04/13 09:56:38;;;;;;;13.37;9.87;;;;;;;7.37;42.17;97858.91;5087544;28;20473;-70
2021/04/13 09:59:49;;;;;;;18.53;9.57;;;;;;;6.90;43.50;97864.97;5108936;28;20515;-69
2021/04/13 10:02:16;;;;;;;11.30;9.63;;;;;;;7.56;42.34;97852.31;5108110;28;20434;-72
2021/04/13 10:04:53;;;;;;;10.77;9.10;;;;;;;7.31;42.68;97856.78;5084913;28;20448;-71
2021/04/13 10:07:22;;;;;;;11.77;9.40;;;;;;;7.34;42.55;97853.91;5107454;28;20969;-69
2021/04/13 10:09:48;;;;;;;13.63;9.87;;;;;;;7.95;41.11;97856.22;5107841;28;20901;-70
2021/04/13 10:12:28;;;;;;;13.97;10.20;;;;;;;7.83;42.13;97857.19;5085881;28;20431;-70
2021/04/13 10:15:15;;;;;;;12.83;9.77;;;;;;;7.55;42.55;97855.88;5105103;28;20197;-71
2021/04/13 10:18:22;;;;;;;11.00;9.07;;;;;;;7.48;41.42;97855.50;5097731;28;20419;-70
2021/04/13 10:20:59;;;;;;;11.93;9.47;;;;;;;8.09;40.23;97849.91;5098096;28;20434;-69
2021/04/13 10:23:31;;;;;;;9.37;7.77;;;;;;;7.28;38.41;97849.19;5083814;28;20430;-69
2021/04/13 10:26:40;;;;;;;8.83;7.50;;;;;;;6.97;38.68;97854.06;5094074;28;20458;-68
2021/04/13 10:29:31;;;;;;;10.90;8.10;;;;;;;7.00;39.99;97851.25;5103182;28;20470;-67
2021/04/13 10:32:28;;;;;;;12.07;8.77;;;;;;;7.18;39.83;97847.25;5104903;28;20419;-68
2021/04/13 10:35:31;;;;;;;12.93;9.10;;;;;;;7.28;40.43;97849.19;5107950;28;20529;-70
2021/04/13 10:38:18;;;;;;;11.13;8.77;;;;;;;7.94;39.22;97845.91;5093852;28;20846;-68
2021/04/13 10:41:21;;;;;;;10.23;9.10;;;;;;;8.40;39.45;97842.25;5093324;28;20480;-68
2021/04/13 10:44:25;;;;;;;10.13;8.63;;;;;;;8.48;38.70;97838.22;5085402;28;20428;-67
2021/04/13 10:46:52;;;;;;;9.53;8.53;;;;;;;7.80;38.83;97841.75;5084642;28;20433;-67
2021/04/13 10:49:42;;;;;;;11.77;9.10;;;;;;;8.29;38.11;97840.50;5092970;28;20467;-68
2021/04/13 10:52:11;;;;;;;9.43;7.70;;;;;;;8.88;37.13;97827.16;5093713;28;20428;-69
2021/04/13 10:54:46;;;;;;;9.53;8.20;;;;;;;8.08;36.65;97834.38;5083820;28;20443;-69
2021/04/13 10:57:24;;;;;;;11.33;8.20;;;;;;;8.54;35.65;97828.09;5088535;28;20415;-69
2021/04/13 11:00:05;;;;;;;11.00;7.60;;;;;;;9.32;34.69;97814.78;5092307;28;20524;-68
2021/04/13 11:02:50;;;;;;;7.97;7.07;;;;;;;9.59;33.95;97821.22;5080591;28;20452;-67
2021/04/13 11:05:38;;;;;;;8.13;7.00;;;;;;;9.70;32.97;97817.69;5094565;28;20444;-69
2021/04/13 11:08:41;;;;;;;8.23;6.63;;;;;;;9.49;33.52;97815.13;5094691;28;20542;-67
2021/04/13 11:11:46;;;;;;;8.53;7.73;;;;;;;8.04;35.57;97812.91;5094484;28;20427;-69
2021/04/13 11:14:42;;;;;;;8.07;7.13;;;;;;;10.12;32.49;97812.31;5093350;28;20424;-69
2021/04/13 11:17:33;;;;;;;8.73;6.50;;;;;;;10.88;30.46;97810.06;5094425;28;21016;-70
2021/04/13 11:20:19;;;;;;;8.20;7.27;;;;;;;9.44;32.62;97819.94;5093388;28;21018;-68
2021/04/13 11:23:03;;;;;;;7.90;6.80;;;;;;;9.20;32.81;97814.00;5088334;28;20529;-70
2021/04/13 11:25:48;;;;;;;6.03;5.43;;;;;;;8.62;31.00;97809.19;5079841;28;20881;-67
2021/04/13 11:28:19;;;;;;;6.53;5.67;;;;;;;8.86;29.41;97805.53;5093579;28;20470;-68
2021/04/13 11:31:06;;;;;;;8.10;6.43;;;;;;;8.81;30.36;97802.47;5085842;28;20493;-70
2021/04/13 11:33:39;;;;;;;7.07;6.10;;;;;;;8.83;30.60;97796.16;5079713;28;20420;-69
2021/04/13 11:36:28;;;;;;;8.17;6.70;;;;;;;9.18;30.17;97794.19;5090121;28;20462;-67
2021/04/13 11:39:04;;;;;;;7.10;5.77;;;;;;;9.08;31.29;97794.13;5092559;28;20419;-70
2021/04/13 11:41:48;;;;;;;6.90;5.60;;;;;;;10.20;29.76;97785.47;5089869;28;20926;-69
2021/04/13 11:44:24;;;;;;;6.70;5.97;;;;;;;10.48;29.07;97784.81;5078227;28;20751;-69
2021/04/13 11:47:00;;;;;;;6.90;6.20;;;;;;;10.58;27.62;97802.22;5090554;28;20515;-69
2021/04/13 11:49:42;;;;;;;7.73;6.30;;;;;;;11.67;26.66;97785.25;5091758;28;20419;-69
2021/04/13 11:52:19;;;;;;;7.67;6.33;;;;;;;11.19;26.96;97776.59;5091806;28;20431;-70
2021/04/13 11:54:53;;;;;;;7.97;7.03;;;;;;;10.19;28.14;97778.56;5083893;28;20443;-69
2021/04/13 11:57:33;;;;;;;8.00;6.40;;;;;;;11.55;26.89;97764.59;5087051;28;20452;-68
2021/04/13 12:00:10;;;;;;;7.53;6.70;;;;;;;10.62;29.06;97767.84;5092931;28;20473;-69
2021/04/13 12:02:41;;;;;;;8.00;6.37;;;;;;;9.82;30.01;97773.94;5092611;28;20431;-69
2021/04/13 12:05:27;;;;;;;7.87;6.30;;;;;;;10.43;30.04;97780.00;5091528;28;20460;-70
2021/04/13 12:07:54;;;;;;;8.47;7.20;;;;;;;9.49;33.38;97787.19;5091888;28;20513;-69
2021/04/13 12:10:32;;;;;;;8.67;7.30;;;;;;;8.73;34.82;97785.63;5092017;28;20580;-70
2021/04/13 12:12:58;;;;;;;9.20;7.40;;;;;;;8.65;35.81;97774.97;5090702;28;20456;-69